Baltimore, Maryland
Traffic Map
Current Weather Conditions
Baltimore, Maryland
Broken Clouds
Broken Clouds
53°
Feels Like: 53°
Wind Chill: 53° Ceiling: 25000
Heat Index: 53° Visibility: 10mi
Dew Point: 27° Wind: 20mph
Humidity: 37% Direction: 290° (WNW)
Pressure: 29.79in Gusts: 35mph
Raw Report DataKBWI 171954Z 29017G30KT 10SM FEW055 FEW160 BKN250 12/M03 A2979 RMK AO2 PK WND 28031/1916 SLP087 T01171028
Traffic Incident Summary
Active as of:
Severity:
Category:
InformationThere was an issue retrieving the traffic information for this location. Please try a different location or try again shortly.
Advertisements